Time;durP1;ratioP1;P1;durP2;ratioP2;P2;SDS_P1;SDS_P2;PMS_P1;PMS_P2;Temp;Humidity;BMP_temperature;BMP_pressure;BME280_temperature;BME280_humidity;BME280_pressure;Samples;Min_cycle;Max_cycle;Signal;HPM_P1;HPM_P2
2021/12/02 00:00:33;;;;;;;7.75;0.80;;;1.80;99.90;;;;;;5069607;28;20123;-43
2021/12/02 00:02:59;;;;;;;10.25;1.55;;;1.80;99.90;;;;;;5069719;28;20033;-45
2021/12/02 00:05:24;;;;;;;14.82;1.45;;;1.80;99.90;;;;;;5070721;28;20052;-44
2021/12/02 00:07:51;;;;;;;8.82;0.70;;;1.70;99.90;;;;;;5070809;28;20041;-44
2021/12/02 00:10:17;;;;;;;10.57;1.00;;;1.70;99.90;;;;;;5071001;28;20056;-45
2021/12/02 00:12:44;;;;;;;8.85;0.63;;;1.60;99.90;;;;;;5071583;28;20109;-45
2021/12/02 00:15:18;;;;;;;11.90;0.73;;;1.60;99.90;;;;;;5053352;28;20036;-44
2021/12/02 00:17:52;;;;;;;8.43;0.43;;;1.50;99.90;;;;;;5071553;28;20115;-43
2021/12/02 00:23:28;;;;;;;11.23;0.75;;;1.50;99.90;;;;;;5071670;28;20125;-43
2021/12/02 00:25:56;;;;;;;9.30;0.82;;;1.40;99.90;;;;;;5071101;28;20394;-43
2021/12/02 00:28:25;;;;;;;10.70;0.45;;;1.50;99.90;;;;;;5071213;28;20067;-44
2021/12/02 00:30:54;;;;;;;7.53;0.85;;;1.50;99.90;;;;;;5070426;28;20441;-43
2021/12/02 00:33:21;;;;;;;10.65;1.13;;;1.50;99.90;;;;;;5070579;28;20049;-44
2021/12/02 00:35:47;;;;;;;11.05;0.75;;;1.40;99.90;;;;;;5070871;28;20118;-43
2021/12/02 00:38:14;;;;;;;10.70;1.25;;;1.30;99.90;;;;;;5070710;28;20455;-43
2021/12/02 00:40:40;;;;;;;9.27;0.60;;;1.30;99.90;;;;;;5070574;28;20044;-44
2021/12/02 00:43:06;;;;;;;13.40;0.47;;;1.30;99.90;;;;;;5070484;28;20093;-43
2021/12/02 00:45:32;;;;;;;15.13;1.92;;;1.10;99.90;;;;;;5070290;28;20048;-44
2021/12/02 00:48:00;;;;;;;6.80;0.90;;;1.10;99.90;;;;;;5051768;28;20048;-43
2021/12/02 00:50:26;;;;;;;9.05;0.57;;;1.10;99.90;;;;;;5070307;28;20037;-43
2021/12/02 00:52:55;;;;;;;8.55;0.73;;;1.10;99.90;;;;;;5070591;28;20466;-42
2021/12/02 00:55:24;;;;;;;10.50;0.88;;;1.20;99.90;;;;;;5070088;28;20036;-43
2021/12/02 00:57:50;;;;;;;13.07;0.85;;;1.10;99.90;;;;;;5069965;28;20135;-44
2021/12/02 01:00:16;;;;;;;14.27;1.08;;;1.10;99.90;;;;;;5069741;28;20498;-44
2021/12/02 01:02:43;;;;;;;9.38;0.60;;;1.10;99.90;;;;;;5069907;28;20122;-44
2021/12/02 01:05:09;;;;;;;13.55;0.80;;;1.00;99.90;;;;;;5070045;28;20379;-43
2021/12/02 01:07:36;;;;;;;14.45;0.88;;;1.00;99.90;;;;;;5069748;28;20037;-42
2021/12/02 01:10:03;;;;;;;16.05;1.05;;;1.00;99.90;;;;;;5069944;28;20048;-42
2021/12/02 01:12:29;;;;;;;7.90;0.60;;;1.00;99.90;;;;;;5070326;28;20097;-44
2021/12/02 01:14:55;;;;;;;13.18;1.00;;;1.00;99.90;;;;;;5070396;28;20479;-43
2021/12/02 01:17:21;;;;;;;10.15;0.70;;;1.30;99.90;;;;;;5069520;28;20048;-43
2021/12/02 01:19:46;;;;;;;12.52;0.90;;;1.10;99.90;;;;;;5069717;28;20057;-43
2021/12/02 01:22:14;;;;;;;7.60;0.85;;;1.20;99.90;;;;;;5069498;28;20045;-42
2021/12/02 01:24:43;;;;;;;10.27;1.10;;;1.10;99.90;;;;;;5069504;28;20462;-42
2021/12/02 01:27:10;;;;;;;10.65;0.95;;;1.10;99.90;;;;;;5069402;28;20475;-43
2021/12/02 01:29:38;;;;;;;14.18;0.98;;;1.10;99.90;;;;;;5069785;28;20044;-42
2021/12/02 01:32:07;;;;;;;11.13;0.80;;;1.10;99.90;;;;;;5069843;28;20044;-43
2021/12/02 01:34:34;;;;;;;9.65;1.00;;;1.10;99.90;;;;;;5069493;28;20048;-43
2021/12/02 01:37:01;;;;;;;14.27;1.10;;;1.20;99.90;;;;;;5069651;28;20040;-44
2021/12/02 01:39:30;;;;;;;10.73;0.47;;;1.10;99.90;;;;;;5069306;28;20040;-45
2021/12/02 01:41:58;;;;;;;8.52;0.50;;;1.10;99.90;;;;;;5069564;28;20048;-43
2021/12/02 01:44:26;;;;;;;11.23;0.98;;;1.00;99.90;;;;;;5069027;28;20043;-43
2021/12/02 01:46:55;;;;;;;7.85;0.68;;;1.00;99.90;;;;;;5069262;28;20051;-42
2021/12/02 01:49:25;;;;;;;14.18;0.75;;;1.10;99.90;;;;;;5069189;28;20471;-42
2021/12/02 01:51:54;;;;;;;7.35;0.40;;;1.10;99.90;;;;;;5069053;28;20049;-44
2021/12/02 01:54:23;;;;;;;12.73;0.90;;;1.10;99.90;;;;;;5068952;28;20486;-43
2021/12/02 01:56:54;;;;;;;9.73;0.70;;;1.20;99.90;;;;;;5069042;28;20107;-43
2021/12/02 01:59:33;;;;;;;20.15;0.95;;;1.30;99.90;;;;;;5068158;28;20040;-44
2021/12/02 02:02:00;;;;;;;6.40;0.43;;;1.40;99.90;;;;;;5052225;28;20040;-44
2021/12/02 02:04:26;;;;;;;10.27;0.50;;;1.50;99.90;;;;;;5068660;28;20072;-43
2021/12/02 02:06:57;;;;;;;7.93;0.43;;;1.70;99.90;;;;;;5069282;28;20047;-44
2021/12/02 02:09:33;;;;;;;7.90;0.50;;;1.70;99.90;;;;;;5068860;28;20078;-44
2021/12/02 02:12:05;;;;;;;5.95;0.38;;;2.00;99.90;;;;;;5068983;28;20083;-43
2021/12/02 02:14:31;;;;;;;4.95;0.22;;;1.80;99.90;;;;;;5068840;28;20075;-42
2021/12/02 02:17:00;;;;;;;4.72;0.30;;;1.80;99.90;;;;;;5068782;28;20064;-44
2021/12/02 02:19:30;;;;;;;2.35;0.57;;;1.90;99.90;;;;;;5068716;28;20127;-42
2021/12/02 02:21:56;;;;;;;4.85;0.20;;;1.80;99.90;;;;;;5068574;28;20401;-44
2021/12/02 02:24:23;;;;;;;7.25;0.30;;;1.80;99.90;;;;;;5068716;28;20102;-44
2021/12/02 02:26:49;;;;;;;6.10;0.55;;;1.80;99.90;;;;;;5068514;28;20083;-44
2021/12/02 02:29:15;;;;;;;5.78;0.17;;;1.80;99.90;;;;;;5068603;28;20042;-44
2021/12/02 02:31:43;;;;;;;8.52;0.40;;;1.80;99.90;;;;;;5068186;28;20048;-43
2021/12/02 02:34:09;;;;;;;8.55;0.20;;;1.70;99.90;;;;;;5068476;28;20041;-43
2021/12/02 02:36:38;;;;;;;8.15;0.50;;;3.00;99.90;;;;;;5068976;28;20442;-44
2021/12/02 02:39:04;;;;;;;5.75;0.25;;;1.60;99.90;;;;;;5068379;28;20142;-43
2021/12/02 02:41:35;;;;;;;6.00;0.30;;;1.50;99.90;;;;;;5068435;28;20492;-44
2021/12/02 02:44:01;;;;;;;8.45;0.52;;;1.50;99.90;;;;;;5067922;28;20055;-43
2021/12/02 02:46:31;;;;;;;5.68;0.30;;;1.30;99.90;;;;;;5068202;28;20123;-42
2021/12/02 02:48:58;;;;;;;9.60;0.50;;;1.50;99.90;;;;;;5068234;28;20432;-44
2021/12/02 02:51:26;;;;;;;7.57;0.22;;;1.50;99.90;;;;;;5068094;28;20123;-45
2021/12/02 02:53:54;;;;;;;6.85;0.20;;;1.50;99.90;;;;;;5068621;28;20032;-44
2021/12/02 02:56:22;;;;;;;7.47;0.30;;;1.50;99.90;;;;;;5068212;28;20471;-43
2021/12/02 03:01:38;;;;;;;8.35;0.40;;;1.60;99.90;;;;;;5068009;28;20049;-43
2021/12/02 03:07:00;;;;;;;7.82;0.88;;;1.60;99.90;;;;;;5046377;28;20128;-43
2021/12/02 03:12:15;;;;;;;;;;;1.50;99.90;;;;;;5071063;28;20555;-43
2021/12/02 03:17:11;;;;;;;9.70;0.40;;;1.50;99.90;;;;;;5071959;28;20478;-42
2021/12/02 03:19:41;;;;;;;9.88;0.70;;;1.40;99.90;;;;;;5071616;28;20524;-42
2021/12/02 03:22:07;;;;;;;5.00;0.40;;;1.40;99.90;;;;;;5072036;28;20048;-42
2021/12/02 03:24:33;;;;;;;7.28;0.40;;;1.40;99.90;;;;;;5071770;28;20071;-43
2021/12/02 03:26:58;;;;;;;8.15;0.75;;;1.50;99.90;;;;;;5072185;28;20040;-43
2021/12/02 03:29:24;;;;;;;7.05;0.65;;;1.60;99.90;;;;;;5071861;28;20582;-42
2021/12/02 03:31:50;;;;;;;13.10;0.40;;;1.60;99.90;;;;;;5071677;28;20098;-44
2021/12/02 03:34:16;;;;;;;9.05;0.70;;;1.60;99.90;;;;;;5072104;28;20139;-43
2021/12/02 03:36:42;;;;;;;6.43;1.05;;;1.60;99.90;;;;;;5071732;28;20043;-43
2021/12/02 03:39:10;;;;;;;4.43;0.57;;;1.70;99.90;;;;;;5071635;28;20376;-42
2021/12/02 03:41:37;;;;;;;9.38;0.30;;;1.70;99.90;;;;;;5071580;28;20049;-43
2021/12/02 03:44:03;;;;;;;4.65;0.20;;;1.70;99.90;;;;;;5071744;28;20470;-43
2021/12/02 03:46:29;;;;;;;7.25;0.30;;;1.70;99.90;;;;;;5071556;28;20036;-42
2021/12/02 03:48:57;;;;;;;7.40;0.30;;;1.90;99.90;;;;;;5071601;28;20147;-43
2021/12/02 03:51:23;;;;;;;6.82;0.28;;;1.80;99.90;;;;;;5071159;28;20047;-43
2021/12/02 03:53:49;;;;;;;8.25;0.40;;;1.80;99.90;;;;;;5071633;28;20036;-42
2021/12/02 03:56:15;;;;;;;5.82;0.20;;;1.80;99.90;;;;;;5071901;28;20111;-43
2021/12/02 03:58:43;;;;;;;6.38;0.30;;;1.70;99.90;;;;;;5071273;28;20047;-43
2021/12/02 04:01:09;;;;;;;7.47;0.50;;;1.70;99.90;;;;;;5071336;28;20079;-42
2021/12/02 04:03:36;;;;;;;3.88;0.30;;;1.60;99.90;;;;;;5071281;28;20048;-43
2021/12/02 04:06:02;;;;;;;4.75;0.20;;;1.60;99.90;;;;;;5071295;28;20048;-43
2021/12/02 04:08:39;;;;;;;7.45;0.60;;;1.90;99.90;;;;;;5071386;28;20375;-42
2021/12/02 04:14:12;;;;;;;8.48;0.30;;;1.40;99.90;;;;;;5070813;28;20079;-43
2021/12/02 04:16:40;;;;;;;3.13;0.30;;;1.60;99.90;;;;;;5070614;28;20482;-44
2021/12/02 04:19:09;;;;;;;6.65;0.43;;;1.20;99.90;;;;;;5070881;28;20417;-42
2021/12/02 04:21:35;;;;;;;3.85;0.30;;;1.10;99.90;;;;;;5070875;28;20041;-42
2021/12/02 04:24:02;;;;;;;2.08;0.40;;;1.10;99.90;;;;;;5051568;28;20543;-44
2021/12/02 04:26:28;;;;;;;6.22;0.50;;;1.10;99.90;;;;;;5070761;28;20352;-42
2021/12/02 04:28:54;;;;;;;3.33;0.30;;;1.10;99.90;;;;;;5052472;28;20482;-42
2021/12/02 04:31:20;;;;;;;4.10;0.40;;;1.90;99.90;;;;;;5070809;28;20045;-43
2021/12/02 04:33:45;;;;;;;6.72;1.15;;;1.10;99.90;;;;;;5070543;28;20032;-42
2021/12/02 04:36:11;;;;;;;7.32;0.40;;;1.70;99.90;;;;;;5070786;28;20040;-42
2021/12/02 04:38:37;;;;;;;12.05;0.70;;;1.10;99.90;;;;;;5052622;28;20051;-42
2021/12/02 04:41:04;;;;;;;4.97;0.65;;;1.10;99.90;;;;;;5070864;28;20466;-44
2021/12/02 04:43:31;;;;;;;7.18;0.40;;;1.10;99.90;;;;;;5070385;28;20141;-44
2021/12/02 04:45:56;;;;;;;6.05;0.65;;;1.20;99.90;;;;;;5070585;28;20088;-42
2021/12/02 04:48:22;;;;;;;6.82;0.52;;;0.90;99.90;;;;;;5070687;28;20070;-42
2021/12/02 04:50:48;;;;;;;4.55;0.45;;;0.80;99.90;;;;;;5070098;28;20378;-42
2021/12/02 04:53:14;;;;;;;6.78;0.60;;;0.80;99.90;;;;;;5070506;28;20032;-43
2021/12/02 04:55:40;;;;;;;5.97;0.70;;;0.80;99.90;;;;;;5070286;28;20046;-42
2021/12/02 04:58:06;;;;;;;8.88;0.52;;;0.70;99.90;;;;;;5070437;28;20425;-45
2021/12/02 05:00:32;;;;;;;3.17;0.30;;;0.90;99.90;;;;;;5069964;28;20044;-44
2021/12/02 05:02:58;;;;;;;5.60;0.50;;;0.50;99.90;;;;;;5070463;28;20135;-43
2021/12/02 05:05:24;;;;;;;5.68;0.73;;;0.50;99.90;;;;;;5070873;28;20097;-42
2021/12/02 05:07:53;;;;;;;9.13;0.77;;;0.40;99.90;;;;;;5052571;28;20048;-42
2021/12/02 05:10:20;;;;;;;4.15;0.43;;;0.40;99.90;;;;;;5052658;28;20098;-43
2021/12/02 05:12:46;;;;;;;6.95;0.50;;;0.50;99.90;;;;;;5069706;28;20051;-42
2021/12/02 05:15:12;;;;;;;6.38;0.85;;;0.50;99.90;;;;;;5070387;28;20040;-44
2021/12/02 05:17:37;;;;;;;9.75;1.73;;;0.70;99.90;;;;;;5069792;28;20116;-42
2021/12/02 05:20:05;;;;;;;4.00;0.95;;;0.80;99.90;;;;;;5069714;28;20061;-42
2021/12/02 05:22:32;;;;;;;9.52;1.70;;;0.80;99.90;;;;;;5069833;28;20076;-43
2021/12/02 05:24:59;;;;;;;5.70;1.90;;;0.90;99.90;;;;;;5070017;28;20032;-43
2021/12/02 05:27:24;;;;;;;9.63;2.53;;;0.90;99.90;;;;;;5069721;28;20047;-44
2021/12/02 05:29:50;;;;;;;10.23;2.22;;;1.00;99.90;;;;;;5069416;28;20032;-42
2021/12/02 05:32:16;;;;;;;10.00;2.83;;;1.10;99.90;;;;;;5069846;28;20512;-43
2021/12/02 05:34:47;;;;;;;4.95;2.20;;;1.10;99.90;;;;;;5069685;28;20033;-43
2021/12/02 05:37:13;;;;;;;6.93;2.33;;;1.10;99.90;;;;;;5070126;28;20410;-42
2021/12/02 05:39:39;;;;;;;8.18;2.53;;;1.20;99.90;;;;;;5070276;28;20111;-44
2021/12/02 05:42:05;;;;;;;8.23;2.90;;;1.20;99.90;;;;;;5069877;28;20475;-44
2021/12/02 05:44:30;;;;;;;6.93;2.80;;;1.30;99.90;;;;;;5069851;28;20048;-42
2021/12/02 05:46:56;;;;;;;8.90;2.72;;;1.30;99.90;;;;;;5069938;28;20082;-42
2021/12/02 05:49:22;;;;;;;12.05;3.30;;;1.40;99.90;;;;;;5069520;28;20056;-43
2021/12/02 05:51:47;;;;;;;11.05;2.92;;;1.30;99.90;;;;;;5051511;28;20037;-42
2021/12/02 05:54:13;;;;;;;6.82;2.90;;;1.30;99.90;;;;;;5069357;28;20559;-42
2021/12/02 05:56:40;;;;;;;9.55;2.92;;;1.30;99.90;;;;;;5069048;28;20037;-42
2021/12/02 05:59:06;;;;;;;11.25;2.72;;;2.20;99.90;;;;;;5069185;28;20048;-43
2021/12/02 06:01:33;;;;;;;9.05;2.88;;;1.30;99.90;;;;;;5069310;28;20123;-42
2021/12/02 06:03:58;;;;;;;12.95;2.67;;;1.30;99.90;;;;;;5069130;28;20063;-42
2021/12/02 06:06:26;;;;;;;11.38;2.85;;;1.40;99.90;;;;;;5069312;28;20494;-44
2021/12/02 06:08:52;;;;;;;9.75;2.45;;;1.40;99.90;;;;;;5068633;28;20051;-42
2021/12/02 06:11:18;;;;;;;7.38;3.38;;;1.50;99.90;;;;;;5069049;28;20037;-42
2021/12/02 06:13:46;;;;;;;8.20;2.33;;;1.50;99.90;;;;;;5068992;28;20036;-43
2021/12/02 06:16:13;;;;;;;9.05;2.67;;;1.50;99.90;;;;;;5068911;28;20072;-43
2021/12/02 06:18:39;;;;;;;12.90;2.28;;;1.70;99.90;;;;;;5068210;28;20059;-42
2021/12/02 06:21:06;;;;;;;7.68;1.58;;;1.50;99.90;;;;;;5069341;28;20098;-42
2021/12/02 06:23:31;;;;;;;8.32;1.45;;;1.20;99.90;;;;;;5069363;28;20048;-43
2021/12/02 06:25:57;;;;;;;4.47;0.70;;;1.10;99.90;;;;;;5068899;28;20864;-44
2021/12/02 06:28:23;;;;;;;4.10;0.60;;;1.00;99.90;;;;;;5069358;28;20431;-42
2021/12/02 06:30:49;;;;;;;5.10;0.43;;;0.90;99.90;;;;;;5068701;28;20051;-44
2021/12/02 06:33:15;;;;;;;2.58;0.20;;;0.80;99.90;;;;;;5068840;28;20134;-42
2021/12/02 06:35:41;;;;;;;4.03;0.70;;;0.70;99.90;;;;;;5068638;28;20402;-42
2021/12/02 06:38:07;;;;;;;1.55;0.30;;;0.60;99.90;;;;;;5069161;28;20052;-43
2021/12/02 06:40:35;;;;;;;7.45;0.47;;;0.50;99.90;;;;;;5069507;28;20040;-44
2021/12/02 06:43:02;;;;;;;5.65;0.40;;;0.50;99.90;;;;;;5068858;28;20434;-43
2021/12/02 06:45:28;;;;;;;2.65;0.30;;;0.50;99.90;;;;;;5068628;28;20055;-42
2021/12/02 06:47:58;;;;;;;4.93;0.30;;;0.50;99.90;;;;;;5068486;28;20076;-43
2021/12/02 06:50:24;;;;;;;6.68;0.35;;;0.50;99.90;;;;;;5069159;28;20048;-42
2021/12/02 06:52:51;;;;;;;7.18;0.43;;;0.40;99.90;;;;;;5068332;28;20459;-42
2021/12/02 06:55:18;;;;;;;2.85;0.40;;;0.30;99.90;;;;;;5068734;28;20033;-44
2021/12/02 06:57:45;;;;;;;4.88;0.40;;;0.30;99.90;;;;;;5068370;28;20037;-42
2021/12/02 07:00:14;;;;;;;4.30;0.60;;;0.20;99.90;;;;;;5068700;28;20119;-43
2021/12/02 07:02:40;;;;;;;4.82;0.40;;;0.30;99.90;;;;;;5068616;28;20055;-43
2021/12/02 07:05:08;;;;;;;3.42;0.50;;;0.30;99.90;;;;;;5068494;28;20064;-43
2021/12/02 07:07:37;;;;;;;3.42;0.40;;;0.30;99.90;;;;;;5068470;28;20417;-43
2021/12/02 07:10:05;;;;;;;4.65;0.43;;;0.20;99.90;;;;;;5068158;28;20051;-45
2021/12/02 07:12:33;;;;;;;3.92;0.57;;;0.20;99.90;;;;;;5068442;28;20032;-43
2021/12/02 07:15:06;;;;;;;4.28;0.50;;;0.20;99.90;;;;;;5033865;28;20056;-43
2021/12/02 07:17:32;;;;;;;4.03;0.57;;;0.20;99.90;;;;;;5068411;28;20080;-44
2021/12/02 07:19:59;;;;;;;1.95;0.30;;;0.20;99.90;;;;;;5067756;28;20091;-43
2021/12/02 07:22:25;;;;;;;3.97;0.47;;;0.20;99.90;;;;;;5068257;28;20445;-42
2021/12/02 07:24:50;;;;;;;1.52;0.40;;;0.00;99.90;;;;;;5068068;28;20110;-44
2021/12/02 07:27:16;;;;;;;2.50;0.40;;;0.20;99.90;;;;;;5068532;28;20049;-42
2021/12/02 07:29:42;;;;;;;3.13;0.70;;;0.10;99.90;;;;;;5068127;28;20051;-42
2021/12/02 07:32:11;;;;;;;4.85;0.90;;;1.10;99.90;;;;;;5068066;28;20041;-42
2021/12/02 07:34:42;;;;;;;5.60;1.13;;;0.10;99.90;;;;;;5068133;28;20121;-42
2021/12/02 07:37:08;;;;;;;6.70;1.10;;;0.00;99.90;;;;;;5068496;28;20037;-42
2021/12/02 07:39:34;;;;;;;4.60;1.50;;;0.00;99.90;;;;;;5068083;28;20390;-43
2021/12/02 07:41:59;;;;;;;7.03;1.70;;;-0.10;99.90;;;;;;5068205;28;20049;-42
2021/12/02 07:44:25;;;;;;;8.75;1.85;;;0.00;99.90;;;;;;5068166;28;20044;-43
2021/12/02 07:46:51;;;;;;;11.07;2.92;;;0.60;99.90;;;;;;5068209;28;20111;-42
2021/12/02 07:49:17;;;;;;;9.07;2.72;;;0.10;99.90;;;;;;5067915;28;20131;-42
2021/12/02 07:51:44;;;;;;;10.10;2.50;;;-0.10;99.90;;;;;;5068053;28;20401;-43
2021/12/02 07:54:12;;;;;;;10.80;2.13;;;0.00;99.90;;;;;;5067768;28;20505;-42
2021/12/02 07:56:38;;;;;;;13.30;2.85;;;0.00;99.90;;;;;;5067994;28;20094;-42
2021/12/02 07:59:05;;;;;;;10.13;2.60;;;0.00;99.90;;;;;;5070205;28;20040;-42
2021/12/02 08:01:34;;;;;;;8.48;2.97;;;0.00;99.90;;;;;;5071354;28;20084;-42
2021/12/02 08:04:01;;;;;;;7.47;2.50;;;0.00;99.90;;;;;;5071387;28;20137;-42
2021/12/02 08:06:27;;;;;;;13.45;3.50;;;0.00;99.90;;;;;;5071577;28;20048;-42
2021/12/02 08:08:54;;;;;;;7.68;3.28;;;0.00;99.90;;;;;;5071048;28;20071;-42
2021/12/02 08:11:19;;;;;;;15.40;2.80;;;0.10;99.90;;;;;;5071245;28;20048;-42
2021/12/02 08:13:51;;;;;;;13.90;3.17;;;0.00;99.90;;;;;;5071189;28;20037;-42
2021/12/02 08:16:18;;;;;;;14.80;2.75;;;0.10;99.90;;;;;;5071383;28;20615;-42
2021/12/02 08:18:44;;;;;;;14.43;2.95;;;0.00;99.90;;;;;;5053044;28;20044;-42
2021/12/02 08:21:10;;;;;;;10.25;3.33;;;0.00;99.90;;;;;;5071501;28;20079;-42
2021/12/02 08:23:36;;;;;;;10.73;3.53;;;1.00;99.90;;;;;;5070929;28;20079;-42
2021/12/02 08:26:02;;;;;;;12.27;3.35;;;0.20;99.90;;;;;;5071012;28;20097;-42
2021/12/02 08:28:29;;;;;;;12.15;3.85;;;0.40;99.90;;;;;;5071118;28;20045;-42
2021/12/02 08:30:57;;;;;;;11.18;4.28;;;0.40;99.90;;;;;;5070428;28;20547;-43
2021/12/02 08:33:23;;;;;;;15.95;4.32;;;0.40;99.90;;;;;;5071128;28;20406;-42
2021/12/02 08:35:48;;;;;;;19.00;5.43;;;1.30;99.90;;;;;;5070709;28;20032;-43
2021/12/02 08:38:17;;;;;;;17.15;5.00;;;0.40;99.90;;;;;;5070702;28;20041;-42
2021/12/02 08:40:46;;;;;;;14.43;6.15;;;0.40;99.90;;;;;;5070535;28;20049;-42
2021/12/02 08:43:14;;;;;;;17.70;5.32;;;0.30;99.90;;;;;;5070481;28;20044;-43
2021/12/02 08:45:43;;;;;;;22.67;5.82;;;0.30;99.90;;;;;;5070553;28;20044;-42
2021/12/02 08:48:10;;;;;;;17.92;5.82;;;0.40;99.90;;;;;;5070223;28;20447;-42
2021/12/02 08:50:37;;;;;;;18.75;6.07;;;0.40;99.90;;;;;;5070329;28;20115;-41
2021/12/02 08:53:06;;;;;;;17.85;6.00;;;1.20;99.90;;;;;;5070146;28;20041;-42
2021/12/02 08:55:32;;;;;;;13.50;5.15;;;0.30;99.90;;;;;;5070368;28;20044;-41
2021/12/02 08:57:59;;;;;;;15.32;6.43;;;0.40;99.90;;;;;;5070026;28;20044;-42
2021/12/02 09:00:34;;;;;;;17.38;5.95;;;0.40;99.90;;;;;;5070951;28;20049;-42
2021/12/02 09:03:00;;;;;;;18.50;5.80;;;0.50;99.90;;;;;;5070819;28;20040;-42
2021/12/02 09:05:27;;;;;;;20.00;6.25;;;0.50;99.90;;;;;;5070252;28;20124;-42
2021/12/02 09:07:52;;;;;;;15.70;6.03;;;0.60;99.90;;;;;;5070076;28;20048;-43
2021/12/02 09:10:21;;;;;;;16.88;6.18;;;0.60;99.90;;;;;;5069050;28;20040;-42
2021/12/02 09:12:48;;;;;;;15.77;6.43;;;0.80;99.90;;;;;;5069910;28;20068;-43
2021/12/02 09:15:13;;;;;;;22.08;7.00;;;0.80;99.90;;;;;;5069318;28;20623;-43
2021/12/02 09:17:39;;;;;;;14.77;5.78;;;0.90;99.90;;;;;;5069782;28;20076;-42
2021/12/02 09:20:07;;;;;;;23.50;7.18;;;1.20;99.90;;;;;;5069491;28;20086;-42
2021/12/02 09:22:33;;;;;;;18.38;6.38;;;1.50;99.90;;;;;;5069992;28;20347;-42
2021/12/02 09:24:59;;;;;;;15.60;6.30;;;1.70;99.90;;;;;;5069328;28;20138;-42
2021/12/02 09:27:25;;;;;;;14.70;5.85;;;1.60;99.90;;;;;;5069162;28;20414;-42
2021/12/02 09:29:51;;;;;;;17.25;6.43;;;1.70;99.90;;;;;;5068654;28;20467;-42
2021/12/02 09:32:17;;;;;;;16.17;5.70;;;1.70;99.90;;;;;;5068633;28;20473;-42
2021/12/02 09:34:43;;;;;;;20.02;6.70;;;1.80;99.90;;;;;;5069077;28;20068;-43
2021/12/02 09:37:08;;;;;;;19.73;6.32;;;2.00;99.90;;;;;;5068871;28;20036;-42
2021/12/02 09:39:34;;;;;;;21.05;6.60;;;2.20;99.90;;;;;;5069497;28;20101;-42
2021/12/02 09:42:02;;;;;;;23.60;7.03;;;2.30;99.90;;;;;;5069270;28;20547;-43
2021/12/02 09:44:28;;;;;;;14.90;5.70;;;2.40;99.90;;;;;;5068723;28;20055;-42
2021/12/02 09:46:54;;;;;;;21.08;6.05;;;2.60;99.90;;;;;;5069245;28;20036;-43
2021/12/02 09:49:22;;;;;;;11.18;3.88;;;3.80;99.90;;;;;;5045148;28;20755;-43
2021/12/02 09:54:28;;;;;;;10.35;4.03;;;2.80;99.90;;;;;;5028778;28;20045;-43
2021/12/02 09:56:57;;;;;;;11.88;4.53;;;2.80;99.90;;;;;;5046122;28;20041;-43
2021/12/02 09:59:47;;;;;;;17.08;4.65;;;2.80;99.90;;;;;;5060412;28;20402;-44
2021/12/02 10:02:16;;;;;;;9.57;4.07;;;2.90;99.90;;;;;;5066408;28;20060;-46
2021/12/02 10:05:00;;;;;;;8.88;3.92;;;2.90;99.90;;;;;;5066145;28;20447;-47
2021/12/02 10:07:36;;;;;;;10.35;3.80;;;3.00;99.90;;;;;;5061701;28;20470;-54
2021/12/02 10:10:31;;;;;;;9.63;3.42;;;3.00;99.90;;;;;;5062941;28;20059;-52
2021/12/02 10:24:29;;;;;;;12.80;2.97;;;3.10;99.90;;;;;;5058673;28;20057;-42
2021/12/02 10:26:55;;;;;;;8.25;2.10;;;3.30;99.90;;;;;;5058707;28;20828;-43
2021/12/02 10:29:28;;;;;;;13.90;2.90;;;3.20;99.90;;;;;;5052198;28;20072;-41
2021/12/02 10:32:13;;;;;;;10.38;2.58;;;3.20;99.90;;;;;;5065676;28;20048;-47
2021/12/02 10:35:10;;;;;;;12.55;3.10;;;3.10;99.90;;;;;;5065629;28;20040;-45
2021/12/02 10:37:39;;;;;;;6.22;1.23;;;3.00;99.90;;;;;;5063972;28;20524;-41
2021/12/02 10:40:12;;;;;;;9.05;0.60;;;2.80;99.90;;;;;;5065210;28;20356;-46
2021/12/02 10:42:43;;;;;;;7.20;0.28;;;2.70;99.90;;;;;;5046744;28;20101;-48
2021/12/02 10:45:24;;;;;;;2.63;0.20;;;2.50;99.90;;;;;;5065303;28;20048;-41
2021/12/02 10:47:52;;;;;;;3.65;0.20;;;2.50;99.90;;;;;;5065615;28;20055;-44
2021/12/02 10:50:19;;;;;;;5.20;0.30;;;2.30;99.90;;;;;;5043704;28;20054;-40
2021/12/02 10:52:45;;;;;;;6.88;0.55;;;2.30;99.90;;;;;;5047110;28;20064;-40
2021/12/02 10:55:17;;;;;;;3.60;0.20;;;2.20;99.90;;;;;;5065732;28;20063;-42
2021/12/02 10:57:57;;;;;;;7.20;0.30;;;2.20;99.90;;;;;;5065598;28;20089;-42
2021/12/02 11:00:31;;;;;;;2.30;0.30;;;2.20;99.90;;;;;;5065336;28;20048;-42
2021/12/02 11:03:00;;;;;;;3.30;0.40;;;2.10;99.90;;;;;;5064972;28;20051;-42
2021/12/02 11:05:32;;;;;;;5.03;0.17;;;2.20;99.90;;;;;;5065451;28;20078;-42
2021/12/02 11:08:05;;;;;;;;;;;2.40;99.90;;;;;;5048000;28;20056;-41
2021/12/02 11:10:37;;;;;;;6.50;0.20;;;2.40;99.90;;;;;;5052240;28;19998;-40
2021/12/02 11:13:03;;;;;;;2.97;0.20;;;2.40;99.90;;;;;;5049250;28;20072;-41
2021/12/02 11:15:30;;;;;;;4.68;0.32;;;2.40;99.90;;;;;;5065194;28;20059;-42
2021/12/02 11:18:03;;;;;;;4.38;0.32;;;2.50;99.90;;;;;;5065209;28;20070;-41
2021/12/02 11:20:41;;;;;;;5.40;0.30;;;2.50;99.90;;;;;;5064845;28;20057;-42
2021/12/02 11:23:09;;;;;;;6.47;0.38;;;2.60;99.90;;;;;;5049751;28;20052;-43
2021/12/02 11:25:52;;;;;;;2.47;0.20;;;2.60;99.90;;;;;;5064991;28;20044;-42
2021/12/02 11:28:18;;;;;;;6.50;0.43;;;2.50;99.90;;;;;;5065332;28;20037;-42
2021/12/02 11:30:44;;;;;;;6.25;0.40;;;2.50;99.90;;;;;;5064678;28;20048;-43
2021/12/02 11:33:10;;;;;;;3.38;0.20;;;2.60;99.90;;;;;;5067603;28;20564;-43
2021/12/02 11:35:40;;;;;;;9.30;0.30;;;2.50;99.90;;;;;;5069008;28;20051;-43
2021/12/02 11:38:26;;;;;;;7.50;0.38;;;2.60;99.90;;;;;;5068961;28;20045;-43
2021/12/02 11:40:57;;;;;;;2.63;0.28;;;2.70;99.90;;;;;;5069101;28;20129;-41
2021/12/02 11:43:26;;;;;;;3.20;0.50;;;2.50;99.90;;;;;;5068055;28;20059;-39
2021/12/02 11:45:54;;;;;;;8.05;0.52;;;2.50;99.90;;;;;;5068498;28;20050;-42
2021/12/02 11:48:23;;;;;;;5.10;1.55;;;2.40;99.90;;;;;;5068620;28;20135;-42
2021/12/02 11:50:54;;;;;;;9.60;1.23;;;2.40;99.90;;;;;;5042190;28;20045;-43
2021/12/02 11:53:23;;;;;;;6.05;1.30;;;2.20;99.90;;;;;;5048578;28;20041;-43
2021/12/02 11:55:58;;;;;;;7.72;1.58;;;2.10;99.90;;;;;;5048393;28;20047;-43
2021/12/02 11:58:25;;;;;;;23.38;4.45;;;2.10;99.90;;;;;;5047901;28;20087;-45
2021/12/02 12:00:51;;;;;;;6.65;2.28;;;3.10;99.90;;;;;;5048480;28;20045;-55
2021/12/02 12:03:26;;;;;;;7.15;2.22;;;2.00;99.90;;;;;;5045175;28;20506;-59
2021/12/02 12:06:01;;;;;;;9.45;2.30;;;2.20;99.90;;;;;;5050033;28;20092;-52
2021/12/02 12:08:38;;;;;;;3.20;1.77;;;2.40;99.90;;;;;;5048260;28;20047;-56
2021/12/02 12:11:26;;;;;;;3.22;1.40;;;2.60;99.90;;;;;;5032681;28;20045;-45
2021/12/02 12:13:58;;;;;;;6.80;2.58;;;2.60;99.90;;;;;;5048194;28;20913;-46
2021/12/02 12:16:27;;;;;;;7.32;3.33;;;2.60;99.90;;;;;;5047897;28;20448;-43
2021/12/02 12:19:21;;;;;;;4.00;1.73;;;2.70;99.90;;;;;;5048304;28;20048;-41
2021/12/02 12:21:53;;;;;;;6.38;1.60;;;2.90;99.90;;;;;;5008540;28;20087;-47
2021/12/02 12:24:19;;;;;;;6.50;2.30;;;1.80;99.90;;;;;;5007436;28;20046;-44
2021/12/02 12:26:46;;;;;;;3.97;1.60;;;2.90;99.90;;;;;;5009103;28;20049;-45
2021/12/02 12:29:15;;;;;;;3.40;1.33;;;2.80;99.90;;;;;;5008830;28;20058;-45
2021/12/02 12:32:14;;;;;;;5.05;1.70;;;2.80;99.90;;;;;;5008479;28;20488;-43
2021/12/02 12:34:53;;;;;;;2.88;1.63;;;2.80;99.90;;;;;;5008834;28;20050;-42
2021/12/02 12:37:47;;;;;;;6.95;1.50;;;2.80;99.90;;;;;;5008176;28;20034;-42
2021/12/02 12:40:16;;;;;;;2.58;1.45;;;2.70;99.90;;;;;;5008654;28;20049;-55
2021/12/02 12:42:51;;;;;;;9.82;2.67;;;2.80;99.90;;;;;;5008262;28;20045;-54
2021/12/02 12:45:33;;;;;;;8.15;2.75;;;2.70;99.90;;;;;;5000859;28;20669;-42
2021/12/02 12:48:04;;;;;;;3.75;1.65;;;2.70;99.90;;;;;;5008232;28;20088;-43
2021/12/02 12:50:40;;;;;;;3.72;1.60;;;2.60;99.90;;;;;;4998329;28;20072;-39
2021/12/02 12:53:06;;;;;;;3.78;0.50;;;2.40;99.90;;;;;;5012311;28;20048;-42
2021/12/02 12:55:34;;;;;;;1.60;0.55;;;2.30;99.90;;;;;;5025973;28;20571;-42
2021/12/02 12:58:13;;;;;;;12.93;0.95;;;2.10;99.90;;;;;;5026974;28;20061;-40
2021/12/02 13:00:45;;;;;;;5.60;0.40;;;2.00;99.90;;;;;;5027652;28;20080;-40
2021/12/02 13:03:20;;;;;;;4.85;0.57;;;1.90;99.90;;;;;;5028123;28;20041;-40
2021/12/02 13:06:13;;;;;;;2.97;0.65;;;1.90;99.90;;;;;;5025987;28;20148;-43
2021/12/02 13:08:49;;;;;;;;;;;1.80;99.90;;;;;;5027495;28;20056;-45
2021/12/02 13:11:21;;;;;;;5.30;1.00;;;1.80;99.90;;;;;;5027523;28;19925;-42
2021/12/02 13:13:48;;;;;;;2.78;0.70;;;1.70;99.90;;;;;;5028246;28;20045;-42
2021/12/02 13:16:16;;;;;;;2.55;0.73;;;1.60;99.90;;;;;;5026002;28;20045;-43
2021/12/02 13:18:48;;;;;;;4.43;0.60;;;1.50;99.90;;;;;;5026651;28;20041;-41
2021/12/02 13:21:32;;;;;;;2.88;0.60;;;1.40;99.90;;;;;;5057000;28;20319;-41
2021/12/02 13:24:14;;;;;;;3.33;1.45;;;1.20;99.90;;;;;;5067353;28;20052;-55
2021/12/02 13:26:41;;;;;;;5.80;1.40;;;1.10;99.90;;;;;;5066257;28;20291;-49
2021/12/02 13:29:20;;;;;;;10.65;2.28;;;1.00;99.90;;;;;;5048631;28;20104;-45
2021/12/02 13:31:51;;;;;;;6.88;2.17;;;0.80;99.90;;;;;;5066586;28;20041;-45
2021/12/02 13:34:19;;;;;;;6.10;1.27;;;0.60;99.90;;;;;;5066911;28;20161;-45